Weather at Esenboğa International Airport

Public forecast

Using degrees Celsius for public forecast. Weather courtesy of forecast.io.

Current aviation weather report (METAR) for Esenboğa International Airport

2024/05/29 07:50 (retrieved 11 minutes ago)

LTAC 290750Z 25002KT 9999 SCT035 18/10 Q1015 NOSIG

Aviation forecast (TAF) for Esenboğa International Airport

2024/05/29 06:03 (retrieved 2 hours ago)

TAF TAF LTAC 290440Z 2906/3006 VRB02KT 1200 BCFG BKN002 BECMG 2906/2907 3500 BR BKN006 BECMG 2907/2908 9999 NSW SCT040 SCT100 TEMPO 2921/2924 -SHRA BKN030 BKN035